createdAt,value
2022-08-20T00:00:05.508Z,23.20
2022-08-20T00:02:41.789Z,23.16
2022-08-20T00:05:12.578Z,22.93
2022-08-20T00:07:42.731Z,23.13
2022-08-20T00:10:12.549Z,23.17
2022-08-20T00:12:48.872Z,23.28
2022-08-20T00:15:24.161Z,23.32
2022-08-20T00:17:54.897Z,23.25
2022-08-20T00:20:26.648Z,23.26
2022-08-20T00:22:56.449Z,23.20
2022-08-20T00:25:26.408Z,23.17
2022-08-20T00:27:56.158Z,23.17
2022-08-20T00:30:30.256Z,23.12
2022-08-20T00:33:02.936Z,23.15
2022-08-20T00:35:35.726Z,23.15
2022-08-20T00:38:06.657Z,22.99
2022-08-20T00:40:41.949Z,23.02
2022-08-20T00:43:31.121Z,22.94
2022-08-20T00:46:05.926Z,22.87
2022-08-20T00:48:37.972Z,22.76
2022-08-20T00:51:11.098Z,22.73
2022-08-20T00:53:42.200Z,22.83
2022-08-20T00:56:13.884Z,22.77
2022-08-20T00:58:46.202Z,22.80
2022-08-20T01:01:19.357Z,22.81
2022-08-20T01:03:49.177Z,22.59
2022-08-20T01:06:18.926Z,22.84
2022-08-20T01:08:48.645Z,22.92
2022-08-20T01:11:22.218Z,22.93
2022-08-20T01:13:53.497Z,22.94
2022-08-20T01:16:29.149Z,22.91
2022-08-20T01:19:00.513Z,22.99
2022-08-20T01:21:33.629Z,22.99
2022-08-20T01:24:16.518Z,23.02
2022-08-20T01:26:50.259Z,22.88
2022-08-20T01:29:25.393Z,22.90
2022-08-20T01:32:01.219Z,22.87
2022-08-20T01:34:31.788Z,22.91
2022-08-20T01:37:02.031Z,22.92
2022-08-20T01:39:34.951Z,23.03
2022-08-20T01:42:15.416Z,23.04
2022-08-20T01:44:47.835Z,22.98
2022-08-20T01:47:22.374Z,22.97
2022-08-20T01:49:56.312Z,22.93
2022-08-20T01:52:33.854Z,22.98
2022-08-20T01:55:04.422Z,22.93
2022-08-20T01:57:37.674Z,22.86
2022-08-20T02:00:10.979Z,22.88
2022-08-20T02:02:50.550Z,22.74
2022-08-20T02:05:20.475Z,22.82
2022-08-20T02:07:50.487Z,22.86
2022-08-20T02:10:21.269Z,22.87
2022-08-20T02:12:53.622Z,22.83
2022-08-20T02:15:30.808Z,22.93
2022-08-20T02:18:08.164Z,22.94
2022-08-20T02:20:38.881Z,23.01
2022-08-20T02:23:10.132Z,23.06
2022-08-20T02:25:42.019Z,23.11
2022-08-20T02:28:17.169Z,23.07
2022-08-20T02:30:49.677Z,22.87
2022-08-20T02:33:24.185Z,23.02
2022-08-20T02:35:56.973Z,23.04
2022-08-20T02:38:27.912Z,23.07
2022-08-20T02:40:57.616Z,23.10
2022-08-20T02:43:32.115Z,22.96
2022-08-20T02:46:02.845Z,23.03
2022-08-20T02:48:33.668Z,22.98
2022-08-20T02:51:07.735Z,23.05
2022-08-20T02:53:41.848Z,23.08
2022-08-20T02:56:12.460Z,23.07
2022-08-20T02:58:45.343Z,22.99
2022-08-20T03:01:19.601Z,23.10
2022-08-20T03:03:49.572Z,22.97
2022-08-20T03:06:19.390Z,22.90
2022-08-20T03:08:49.064Z,23.08
2022-08-20T03:11:19.166Z,23.03
2022-08-20T03:13:52.260Z,23.03
2022-08-20T03:16:22.438Z,22.97
2022-08-20T03:18:52.590Z,22.99
2022-08-20T03:21:22.381Z,22.95
2022-08-20T03:23:52.141Z,22.67
2022-08-20T03:26:21.826Z,22.94
2022-08-20T03:28:54.082Z,23.01
2022-08-20T03:31:23.864Z,22.98
2022-08-20T03:33:53.920Z,23.00
2022-08-20T03:36:27.939Z,23.00
2022-08-20T03:38:59.276Z,22.98
2022-08-20T03:41:29.108Z,22.94
2022-08-20T03:44:01.506Z,22.92
2022-08-20T03:46:31.390Z,22.91
2022-08-20T03:49:01.075Z,22.87
2022-08-20T03:51:31.211Z,22.90
2022-08-20T03:54:01.424Z,22.85
2022-08-20T03:56:31.812Z,22.84
2022-08-20T03:59:04.425Z,22.78
2022-08-20T04:01:45.114Z,22.78
2022-08-20T04:04:16.241Z,22.68
2022-08-20T04:06:47.612Z,22.74
2022-08-20T04:09:17.613Z,22.80
2022-08-20T04:11:47.338Z,22.76
2022-08-20T04:14:20.776Z,22.81
2022-08-20T04:16:50.682Z,22.81
2022-08-20T04:19:21.440Z,22.72
2022-08-20T04:21:51.049Z,22.73
2022-08-20T04:24:22.506Z,22.73
2022-08-20T04:27:02.750Z,22.65
2022-08-20T04:29:36.623Z,22.81
2022-08-20T04:32:08.223Z,22.79
2022-08-20T04:34:40.684Z,22.69
2022-08-20T04:37:17.023Z,22.71
2022-08-20T04:40:07.390Z,22.65
2022-08-20T04:42:36.553Z,22.76
2022-08-20T04:45:10.718Z,22.82
2022-08-20T04:47:40.379Z,22.67
2022-08-20T04:50:12.055Z,22.77
2022-08-20T04:52:42.693Z,22.55
2022-08-20T04:55:12.912Z,22.72
2022-08-20T04:57:42.615Z,22.68
2022-08-20T05:00:19.111Z,22.49
2022-08-20T05:02:49.395Z,22.43
2022-08-20T05:05:19.636Z,22.38
2022-08-20T05:07:49.347Z,22.42
2022-08-20T05:10:21.976Z,22.32
2022-08-20T05:12:56.456Z,22.41
2022-08-20T05:15:29.595Z,22.34
2022-08-20T05:18:04.767Z,22.49
2022-08-20T05:20:38.915Z,22.52
2022-08-20T05:23:11.030Z,22.52
2022-08-20T05:25:41.770Z,22.56
2022-08-20T05:28:13.668Z,22.57
2022-08-20T05:30:48.365Z,22.59
2022-08-20T05:33:21.143Z,22.58
2022-08-20T05:35:53.171Z,22.60
2022-08-20T05:38:26.738Z,22.66
2022-08-20T05:40:56.566Z,22.64
2022-08-20T05:43:26.245Z,22.59
2022-08-20T05:46:00.621Z,22.61
2022-08-20T05:48:31.013Z,22.51
2022-08-20T05:51:00.884Z,22.55
2022-08-20T05:53:30.546Z,22.50
2022-08-20T05:56:01.829Z,22.56
2022-08-20T05:58:32.945Z,22.58
2022-08-20T06:01:05.757Z,22.64
2022-08-20T06:03:48.083Z,22.63
2022-08-20T06:06:28.476Z,22.63
2022-08-20T06:09:07.455Z,22.61
2022-08-20T06:11:37.605Z,22.53
2022-08-20T06:14:07.616Z,22.65
2022-08-20T06:16:40.100Z,22.73
2022-08-20T06:19:27.267Z,22.48
2022-08-20T06:22:02.268Z,22.69
2022-08-20T06:24:47.323Z,22.73
2022-08-20T06:27:18.436Z,22.85
2022-08-20T06:29:48.231Z,22.77
2022-08-20T06:32:28.897Z,22.99
2022-08-20T06:35:04.157Z,23.04
2022-08-20T06:37:36.525Z,23.09
2022-08-20T06:40:10.299Z,23.18
2022-08-20T06:42:47.436Z,23.22
2022-08-20T06:45:20.050Z,23.29
2022-08-20T06:47:53.372Z,23.32
2022-08-20T06:50:25.286Z,23.35
2022-08-20T06:52:55.102Z,23.37
2022-08-20T06:55:25.881Z,23.45
2022-08-20T06:58:00.254Z,23.52
2022-08-20T07:00:33.266Z,23.55
2022-08-20T07:03:06.846Z,23.50
2022-08-20T07:05:42.287Z,23.47
2022-08-20T07:08:13.699Z,23.50
2022-08-20T07:10:44.388Z,23.61
2022-08-20T07:13:16.427Z,23.68
2022-08-20T07:15:47.153Z,23.68
2022-08-20T07:18:28.357Z,23.78
2022-08-20T07:20:58.533Z,23.60
2022-08-20T07:23:29.352Z,23.63
2022-08-20T07:25:59.103Z,23.89
2022-08-20T07:28:32.031Z,23.73
2022-08-20T07:31:15.972Z,23.54
2022-08-20T07:33:50.474Z,23.33
2022-08-20T07:36:21.769Z,23.25
2022-08-20T07:38:52.637Z,23.26
2022-08-20T07:41:23.782Z,23.28
2022-08-20T07:43:53.701Z,23.37
2022-08-20T07:46:23.978Z,23.36
2022-08-20T07:49:05.466Z,23.35
2022-08-20T07:51:35.900Z,23.33
2022-08-20T07:54:06.126Z,23.35
2022-08-20T07:56:35.781Z,23.31
2022-08-20T07:59:06.393Z,23.34
2022-08-20T08:01:36.057Z,23.42
2022-08-20T08:04:08.690Z,23.48
2022-08-20T08:06:44.980Z,23.62
2022-08-20T08:09:17.165Z,23.79
2022-08-20T08:11:52.565Z,23.85
2022-08-20T08:14:26.931Z,23.92
2022-08-20T08:16:58.499Z,24.05
2022-08-20T08:19:38.746Z,24.09
2022-08-20T08:22:12.326Z,24.10
2022-08-20T08:24:56.639Z,24.09
2022-08-20T08:27:27.387Z,23.88
2022-08-20T08:29:57.013Z,23.73
2022-08-20T08:32:26.639Z,23.55
2022-08-20T08:34:58.775Z,23.69
2022-08-20T08:37:30.773Z,23.70
2022-08-20T08:40:01.525Z,23.70
2022-08-20T08:42:43.256Z,23.67
2022-08-20T08:45:16.054Z,23.70
2022-08-20T08:47:47.371Z,23.52
2022-08-20T08:50:49.889Z,23.41
2022-08-20T08:53:22.556Z,23.21
2022-08-20T08:55:52.132Z,23.16
2022-08-20T08:58:21.707Z,23.17
2022-08-20T09:00:55.953Z,23.17
2022-08-20T09:03:30.994Z,23.01
2022-08-20T09:06:05.141Z,23.24
2022-08-20T09:08:38.884Z,23.26
2022-08-20T09:11:10.621Z,23.16
2022-08-20T09:13:40.744Z,23.34
2022-08-20T09:16:10.421Z,23.49
2022-08-20T09:18:40.024Z,23.46
2022-08-20T09:21:14.475Z,23.43
2022-08-20T09:23:44.418Z,23.62
2022-08-20T09:26:14.206Z,23.84
2022-08-20T09:28:43.875Z,23.87
2022-08-20T09:31:18.247Z,23.96
2022-08-20T09:33:49.106Z,23.85
2022-08-20T09:36:31.664Z,23.91
2022-08-20T09:39:03.066Z,23.80
2022-08-20T09:41:34.644Z,24.06
2022-08-20T09:44:04.600Z,24.13
2022-08-20T09:46:34.311Z,24.23
2022-08-20T09:49:04.068Z,23.70
2022-08-20T09:51:38.304Z,24.34
2022-08-20T09:54:08.772Z,24.45
2022-08-20T09:56:38.565Z,24.55
2022-08-20T09:59:08.206Z,24.74
2022-08-20T10:01:37.871Z,24.80
2022-08-20T10:04:08.026Z,24.69
2022-08-20T10:06:44.478Z,24.56
2022-08-20T10:09:14.128Z,24.69
2022-08-20T10:11:43.760Z,25.04
2022-08-20T10:14:13.499Z,25.00
2022-08-20T10:16:43.128Z,24.78
2022-08-20T10:19:12.736Z,24.73
2022-08-20T10:21:44.933Z,24.76
2022-08-20T10:24:14.527Z,24.82
2022-08-20T10:26:44.163Z,24.94
2022-08-20T10:29:13.964Z,24.97
2022-08-20T10:31:43.694Z,25.22
2022-08-20T10:34:13.481Z,25.03
2022-08-20T10:36:47.521Z,26.17
2022-08-20T10:39:17.485Z,25.88
2022-08-20T10:41:47.156Z,25.58
2022-08-20T10:44:17.714Z,25.71
2022-08-20T10:46:47.712Z,25.51
2022-08-20T10:49:17.270Z,25.53
2022-08-20T10:51:49.695Z,25.52
2022-08-20T10:54:19.279Z,25.70
2022-08-20T10:56:49.513Z,25.63
2022-08-20T10:59:19.895Z,25.74
2022-08-20T11:01:49.514Z,25.65
2022-08-20T11:04:19.213Z,25.60
2022-08-20T11:06:51.450Z,25.33
2022-08-20T11:09:21.063Z,25.14
2022-08-20T11:11:50.716Z,25.17
2022-08-20T11:14:20.422Z,25.15
2022-08-20T11:16:50.163Z,25.32
2022-08-20T11:19:19.947Z,25.43
2022-08-20T11:21:52.272Z,25.47
2022-08-20T11:24:22.053Z,24.84
2022-08-20T11:26:53.795Z,25.42
2022-08-20T11:29:24.967Z,25.59
2022-08-20T11:31:54.834Z,25.51
2022-08-20T11:34:24.567Z,25.15
2022-08-20T11:36:57.281Z,26.16
2022-08-20T11:39:27.077Z,25.96
2022-08-20T11:41:56.930Z,25.95
2022-08-20T11:44:26.610Z,26.15
2022-08-20T11:46:59.994Z,26.40
2022-08-20T11:49:29.768Z,26.68
2022-08-20T11:52:02.350Z,26.52
2022-08-20T11:54:34.154Z,26.88
2022-08-20T11:57:03.996Z,26.10
2022-08-20T11:59:33.793Z,26.44
2022-08-20T12:02:03.833Z,25.92
2022-08-20T12:04:35.152Z,26.57
2022-08-20T12:07:19.325Z,26.21
2022-08-20T12:09:50.703Z,26.04
2022-08-20T12:12:23.450Z,26.00
2022-08-20T12:14:54.108Z,26.11
2022-08-20T12:17:28.812Z,26.21
2022-08-20T12:20:00.809Z,26.20
2022-08-20T12:22:33.133Z,26.21
2022-08-20T12:25:03.021Z,26.27
2022-08-20T12:27:34.685Z,26.31
2022-08-20T12:30:07.912Z,26.57
2022-08-20T12:32:37.866Z,26.83
2022-08-20T12:35:08.854Z,27.11
2022-08-20T12:37:41.783Z,27.00
2022-08-20T12:40:14.134Z,26.75
2022-08-20T12:42:44.324Z,26.71
2022-08-20T12:45:14.458Z,26.66
2022-08-20T12:47:45.885Z,26.65
2022-08-20T12:50:18.610Z,26.46
2022-08-20T12:52:51.716Z,26.31
2022-08-20T12:55:23.053Z,26.41
2022-08-20T12:57:56.470Z,26.48
2022-08-20T13:00:28.836Z,26.62
2022-08-20T13:03:01.604Z,26.71
2022-08-20T13:05:31.774Z,26.69
2022-08-20T13:08:05.997Z,26.70
2022-08-20T13:10:38.224Z,26.65
2022-08-20T13:13:07.973Z,26.75
2022-08-20T13:15:39.327Z,26.76
2022-08-20T13:18:10.116Z,26.67
2022-08-20T13:20:39.949Z,26.74
2022-08-20T13:23:12.165Z,26.92
2022-08-20T13:25:41.851Z,26.77
2022-08-20T13:28:11.674Z,26.94
2022-08-20T13:30:41.607Z,26.88
2022-08-20T13:33:11.717Z,27.29
2022-08-20T13:35:41.501Z,27.26
2022-08-20T13:38:13.746Z,27.08
2022-08-20T13:40:43.564Z,26.97
2022-08-20T13:43:17.166Z,26.64
2022-08-20T13:45:46.854Z,26.66
2022-08-20T13:48:16.593Z,26.71
2022-08-20T13:50:47.656Z,26.96
2022-08-20T13:53:20.351Z,27.15
2022-08-20T13:55:50.484Z,27.00
2022-08-20T13:58:22.373Z,26.95
2022-08-20T14:00:52.621Z,26.72
2022-08-20T14:03:25.300Z,26.87
2022-08-20T14:05:55.526Z,26.75
2022-08-20T14:08:27.769Z,26.72
2022-08-20T14:10:57.585Z,27.33
2022-08-20T14:13:29.920Z,27.19
2022-08-20T14:15:59.608Z,26.98
2022-08-20T14:18:30.869Z,26.75
2022-08-20T14:21:01.554Z,26.80
2022-08-20T14:23:36.772Z,26.66
2022-08-20T14:26:07.956Z,26.44
2022-08-20T14:28:37.627Z,26.59
2022-08-20T14:31:07.352Z,26.63
2022-08-20T14:33:39.332Z,26.70
2022-08-20T14:36:12.465Z,26.92
2022-08-20T14:38:45.885Z,27.01
2022-08-20T14:41:15.647Z,27.05
2022-08-20T14:43:45.254Z,27.03
2022-08-20T14:46:14.933Z,27.13
2022-08-20T14:48:44.601Z,27.33
2022-08-20T14:51:22.968Z,27.38
2022-08-20T14:53:55.238Z,27.44
2022-08-20T14:56:24.936Z,27.19
2022-08-20T14:58:54.596Z,27.07
2022-08-20T15:01:24.294Z,27.12
2022-08-20T15:03:54.016Z,27.12
2022-08-20T15:06:23.813Z,27.16
2022-08-20T15:08:56.769Z,27.29
2022-08-20T15:11:26.505Z,27.30
2022-08-20T15:14:00.926Z,27.22
2022-08-20T15:16:30.687Z,27.11
2022-08-20T15:19:00.389Z,27.00
2022-08-20T15:21:30.546Z,26.98
2022-08-20T15:24:19.701Z,26.61
2022-08-20T15:26:49.629Z,26.87
2022-08-20T15:29:23.240Z,26.85
2022-08-20T15:31:53.305Z,27.02
2022-08-20T15:34:23.018Z,27.09
2022-08-20T15:36:52.741Z,27.16
2022-08-20T15:39:25.043Z,27.30
2022-08-20T15:41:54.739Z,27.34
2022-08-20T15:44:24.430Z,26.00
2022-08-20T15:46:54.585Z,26.80
2022-08-20T15:49:24.596Z,26.86
2022-08-20T15:51:54.382Z,26.91
2022-08-20T15:54:30.150Z,26.91
2022-08-20T15:57:05.745Z,26.84
2022-08-20T16:00:06.820Z,26.89
2022-08-20T16:03:14.573Z,26.88
2022-08-20T16:05:50.850Z,26.87
2022-08-20T16:08:46.794Z,26.83
2022-08-20T16:11:31.562Z,26.75
2022-08-20T16:14:18.211Z,26.73
2022-08-20T16:16:51.422Z,26.54
2022-08-20T16:19:39.647Z,26.55
2022-08-20T16:22:11.722Z,26.46
2022-08-20T16:24:41.530Z,26.53
2022-08-20T16:27:21.329Z,26.75
2022-08-20T16:29:59.179Z,26.74
2022-08-20T16:32:38.539Z,26.92
2022-08-20T16:35:30.204Z,26.92
2022-08-20T16:38:05.055Z,26.88
2022-08-20T16:40:49.720Z,27.00
2022-08-20T16:43:28.945Z,26.94
2022-08-20T16:46:04.562Z,26.88
2022-08-20T16:48:46.155Z,26.86
2022-08-20T16:51:21.770Z,26.84
2022-08-20T16:53:51.505Z,26.62
2022-08-20T16:56:34.495Z,26.72
2022-08-20T16:59:12.984Z,26.68
2022-08-20T17:02:06.901Z,26.65
2022-08-20T17:04:59.267Z,26.55
2022-08-20T17:07:43.137Z,26.50
2022-08-20T17:10:20.442Z,26.47
2022-08-20T17:12:56.302Z,26.51
2022-08-20T17:15:31.477Z,26.59
2022-08-20T17:18:19.414Z,26.55
2022-08-20T17:20:49.130Z,26.56
2022-08-20T17:23:21.741Z,26.49
2022-08-20T17:26:00.037Z,26.54
2022-08-20T17:28:34.990Z,26.26
2022-08-20T17:31:07.950Z,26.47
2022-08-20T17:33:41.472Z,26.44
2022-08-20T17:36:20.165Z,26.45
2022-08-20T17:38:52.524Z,26.40
2022-08-20T17:41:24.748Z,26.43
2022-08-20T17:44:01.145Z,26.54
2022-08-20T17:46:48.137Z,26.42
2022-08-20T17:49:21.911Z,26.40
2022-08-20T17:51:54.611Z,26.32
2022-08-20T17:54:28.631Z,26.38
2022-08-20T17:57:02.922Z,26.38
2022-08-20T17:59:59.822Z,26.35
2022-08-20T18:02:31.355Z,26.21
2022-08-20T18:05:01.184Z,26.30
2022-08-20T18:07:37.743Z,26.28
2022-08-20T18:10:13.376Z,26.18
2022-08-20T18:12:46.723Z,26.01
2022-08-20T18:15:24.493Z,26.10
2022-08-20T18:18:18.272Z,25.96
2022-08-20T18:21:16.545Z,25.83
2022-08-20T18:23:50.461Z,25.78
2022-08-20T18:26:24.001Z,25.75
2022-08-20T18:28:59.279Z,25.72
2022-08-20T18:31:32.990Z,25.67
2022-08-20T18:34:17.412Z,25.59
2022-08-20T18:36:57.403Z,25.54
2022-08-20T18:39:32.176Z,25.50
2022-08-20T18:42:04.422Z,25.49
2022-08-20T18:44:44.051Z,25.42
2022-08-20T18:47:24.086Z,25.41
2022-08-20T18:50:19.142Z,25.21
2022-08-20T18:52:54.618Z,25.24
2022-08-20T18:55:34.316Z,25.23
2022-08-20T18:58:09.033Z,25.14
2022-08-20T19:00:49.138Z,25.09
2022-08-20T19:03:27.144Z,24.89
2022-08-20T19:06:13.688Z,24.87
2022-08-20T19:08:53.227Z,24.80
2022-08-20T19:11:45.202Z,24.73
2022-08-20T19:14:38.295Z,24.62
2022-08-20T19:17:12.816Z,24.56
2022-08-20T19:19:42.755Z,24.50
2022-08-20T19:22:19.137Z,24.35
2022-08-20T19:24:56.801Z,24.31
2022-08-20T19:27:27.449Z,24.18
2022-08-20T19:29:58.404Z,24.14
2022-08-20T19:32:31.179Z,23.98
2022-08-20T19:35:03.209Z,23.74
2022-08-20T19:37:44.334Z,23.75
2022-08-20T19:40:28.537Z,23.57
2022-08-20T19:43:00.690Z,23.49
2022-08-20T19:45:38.531Z,23.50
2022-08-20T19:48:26.993Z,23.44
2022-08-20T19:51:15.782Z,23.41
2022-08-20T19:53:51.012Z,23.44
2022-08-20T19:56:22.976Z,23.38
2022-08-20T19:59:01.891Z,23.35
2022-08-20T20:01:32.307Z,23.14
2022-08-20T20:04:06.265Z,23.16
2022-08-20T20:06:40.455Z,23.18
2022-08-20T20:09:22.202Z,23.16
2022-08-20T20:11:57.026Z,23.09
2022-08-20T20:14:30.566Z,23.04
2022-08-20T20:17:00.900Z,22.87
2022-08-20T20:19:30.614Z,22.81
2022-08-20T20:22:18.700Z,22.76
2022-08-20T20:25:02.688Z,22.71
2022-08-20T20:27:33.258Z,22.65
2022-08-20T20:30:04.709Z,22.63
2022-08-20T20:32:36.298Z,22.53
2022-08-20T20:35:09.143Z,22.53
2022-08-20T20:37:49.730Z,22.50
2022-08-20T20:40:30.637Z,22.45
2022-08-20T20:43:07.883Z,22.24
2022-08-20T20:45:40.463Z,22.17
2022-08-20T20:48:21.289Z,22.12
2022-08-20T20:50:52.683Z,22.12
2022-08-20T20:53:51.228Z,22.08
2022-08-20T20:56:39.869Z,22.04
2022-08-20T20:59:11.990Z,21.95
2022-08-20T21:01:49.138Z,21.88
2022-08-20T21:04:23.995Z,21.87
2022-08-20T21:06:55.580Z,21.80
2022-08-20T21:09:26.594Z,21.72
2022-08-20T21:11:58.877Z,21.70
2022-08-20T21:14:28.826Z,21.67
2022-08-20T21:17:00.740Z,21.61
2022-08-20T21:19:31.304Z,21.54
2022-08-20T21:22:01.057Z,21.49
2022-08-20T21:24:30.741Z,21.49
2022-08-20T21:27:04.034Z,21.30
2022-08-20T21:29:34.649Z,21.05
2022-08-20T21:32:04.308Z,21.00
2022-08-20T21:34:34.396Z,20.93
2022-08-20T21:37:04.133Z,20.88
2022-08-20T21:39:33.994Z,20.82
2022-08-20T21:42:18.563Z,20.80
2022-08-20T21:44:58.476Z,20.78
2022-08-20T21:47:28.379Z,20.85
2022-08-20T21:49:58.185Z,20.92
2022-08-20T21:52:27.904Z,20.85
2022-08-20T21:54:57.629Z,20.86
2022-08-20T21:57:33.266Z,20.78
2022-08-20T22:00:04.490Z,20.84
2022-08-20T22:02:34.938Z,20.76
2022-08-20T22:05:05.301Z,20.65
2022-08-20T22:07:35.106Z,20.67
2022-08-20T22:10:05.496Z,20.49
2022-08-20T22:12:37.813Z,20.43
2022-08-20T22:15:09.378Z,20.35
2022-08-20T22:17:39.136Z,20.46
2022-08-20T22:20:10.317Z,20.43
2022-08-20T22:22:39.995Z,20.52
2022-08-20T22:25:15.834Z,20.41
2022-08-20T22:27:48.175Z,20.40
2022-08-20T22:30:17.899Z,20.06
2022-08-20T22:33:00.792Z,20.34
2022-08-20T22:35:30.692Z,20.31
2022-08-20T22:38:00.541Z,20.25
2022-08-20T22:40:30.339Z,20.19
2022-08-20T22:43:02.647Z,20.20
2022-08-20T22:45:32.538Z,20.18
2022-08-20T22:48:02.985Z,20.13
2022-08-20T22:50:33.253Z,20.09
2022-08-20T22:53:04.522Z,19.86
2022-08-20T22:55:35.302Z,19.79
2022-08-20T22:58:09.594Z,19.92
2022-08-20T23:00:40.693Z,19.75
2022-08-20T23:03:10.651Z,19.71
2022-08-20T23:05:41.135Z,19.62
2022-08-20T23:08:12.221Z,19.61
2022-08-20T23:10:42.214Z,19.56
2022-08-20T23:13:15.515Z,19.55
2022-08-20T23:15:45.906Z,19.50
2022-08-20T23:18:18.497Z,19.45
2022-08-20T23:20:56.048Z,19.46
2022-08-20T23:23:28.127Z,19.39
2022-08-20T23:25:58.348Z,19.41
2022-08-20T23:28:30.662Z,19.52
2022-08-20T23:31:00.441Z,19.45
2022-08-20T23:33:31.535Z,19.46
2022-08-20T23:36:02.394Z,19.39
2022-08-20T23:38:32.199Z,19.31
2022-08-20T23:41:02.022Z,19.27
2022-08-20T23:43:34.283Z,19.21
2022-08-20T23:46:07.005Z,19.13
2022-08-20T23:48:36.942Z,19.25
2022-08-20T23:51:08.210Z,19.26
2022-08-20T23:53:38.759Z,19.17
2022-08-20T23:56:08.750Z,19.03
2022-08-20T23:58:41.014Z,19.10
